LFBH 221500Z AUTO 26009KT 9999 OVC022 12/07 Q1033 NOSIG

ElémentsDécodage
LFBH Station météo située sur l'aérodrome de LA-ROCHELLE Ile-de-Re
221500Z émis le 22 du mois à 15h00 UTC
AUTO Bulletin édité par un automate
26009KT vent du 260°, 09 noeuds
9999 visibilité horizontale supérieure à 10 Km
OVC022 couverture nuageuse totale (8/8) à 2200 pieds
12/07 température 12°C, point de rosée 07°C
 soit une humidité relative de 71%
Q1033 la pression au niveau de la mer (QNH) est de 1033 hPa
NOSIG Pas de changement significatif prévu au cours des deux heures suivant l'heure de l'observation